Time;durP1;ratioP1;P1;durP2;ratioP2;P2;SDS_P1;SDS_P2;PMS_P1;PMS_P2;Temp;Humidity;BMP_temperature;BMP_pressure;BME280_temperature;BME280_humidity;BME280_pressure;Samples;Min_cycle;Max_cycle;Signal;HPM_P1;HPM_P2
2021/10/12 00:01:26;;;;;;;36.73;20.72;;;;;;;16.63;39.52;99842.36;1745105;80;21998;-67
2021/10/12 00:03:52;;;;;;;26.55;19.00;;;;;;;16.62;39.56;99843.41;1732307;82;21030;-65
2021/10/12 00:06:19;;;;;;;32.73;20.57;;;;;;;16.60;39.54;99835.56;1749681;80;21529;-66
2021/10/12 00:08:45;;;;;;;30.92;21.10;;;;;;;16.61;39.53;99837.23;1738194;82;21116;-65
2021/10/12 00:11:13;;;;;;;25.68;19.45;;;;;;;16.60;39.59;99828.03;1731927;82;21041;-66
2021/10/12 00:13:40;;;;;;;27.55;20.35;;;;;;;16.58;39.57;99830.09;1732352;80;21077;-65
2021/10/12 00:16:07;;;;;;;29.18;19.98;;;;;;;16.57;39.52;99823.89;1746257;82;21014;-65
2021/10/12 00:18:34;;;;;;;25.35;20.57;;;;;;;16.57;39.54;99830.59;1745161;80;21142;-65
2021/10/12 00:21:02;;;;;;;27.90;20.50;;;;;;;16.56;39.51;99828.95;1747462;82;20987;-65
2021/10/12 00:23:28;;;;;;;27.32;19.77;;;;;;;16.56;39.45;99825.45;1746236;82;21474;-65
2021/10/12 00:25:54;;;;;;;29.67;20.25;;;;;;;16.56;39.46;99822.78;1748643;80;21089;-65
2021/10/12 00:28:21;;;;;;;26.35;20.20;;;;;;;16.55;39.46;99817.91;1744491;82;21070;-65
2021/10/12 00:30:47;;;;;;;25.60;20.10;;;;;;;16.54;39.43;99816.27;1727728;82;21741;-66
2021/10/12 00:33:13;;;;;;;23.67;18.67;;;;;;;16.52;39.44;99815.66;1738570;80;20991;-65
2021/10/12 00:35:40;;;;;;;25.05;18.20;;;;;;;16.53;39.42;99821.31;1736247;81;21113;-64
2021/10/12 00:38:08;;;;;;;25.70;18.85;;;;;;;16.52;39.38;99812.97;1736762;80;21023;-66
2021/10/12 00:40:37;;;;;;;24.72;19.90;;;;;;;16.51;39.43;99810.81;1755969;80;21914;-66
2021/10/12 00:43:04;;;;;;;23.95;19.67;;;;;;;16.50;39.43;99807.81;1752042;80;22015;-65
2021/10/12 00:45:31;;;;;;;25.88;19.52;;;;;;;16.50;39.38;99811.83;1728719;80;21089;-65
2021/10/12 00:48:05;;;;;;;25.95;19.48;;;;;;;16.50;39.36;99811.83;1741661;81;21510;-65
2021/10/12 00:50:34;;;;;;;26.33;19.87;;;;;;;16.49;39.35;99806.14;1738710;80;21066;-65
2021/10/12 00:53:01;;;;;;;24.18;18.55;;;;;;;16.48;39.35;99801.01;1731869;80;21137;-65
2021/10/12 00:55:28;;;;;;;21.40;17.65;;;;;;;16.47;39.38;99800.69;1735993;80;21262;-65
2021/10/12 00:57:55;;;;;;;23.98;18.82;;;;;;;16.37;39.32;99781.50;1733224;81;21541;-65
2021/10/12 01:00:21;;;;;;;23.55;18.25;;;;;;;16.46;39.33;99793.69;1721206;82;21105;-65
2021/10/12 01:02:48;;;;;;;22.50;18.48;;;;;;;16.45;39.33;99787.48;1738489;80;21059;-65
2021/10/12 01:05:14;;;;;;;20.10;16.93;;;;;;;16.45;39.30;99793.36;1745202;80;21275;-66
2021/10/12 01:07:41;;;;;;;24.67;19.00;;;;;;;16.45;39.31;99789.34;1739683;80;22330;-66
2021/10/12 01:10:10;;;;;;;23.80;18.80;;;;;;;16.43;39.29;99789.54;1736368;82;21505;-65
2021/10/12 01:12:38;;;;;;;25.37;18.80;;;;;;;16.43;39.29;99782.02;1735377;81;21019;-66
2021/10/12 01:15:07;;;;;;;21.07;17.42;;;;;;;16.42;39.26;99781.73;1736429;82;21069;-65
2021/10/12 01:17:36;;;;;;;22.37;18.02;;;;;;;16.41;39.29;99782.22;1737853;80;21018;-64
2021/10/12 01:20:04;;;;;;;23.30;19.05;;;;;;;16.41;39.27;99781.40;1736672;80;21131;-66
2021/10/12 01:22:31;;;;;;;21.95;17.75;;;;;;;16.41;39.27;99778.72;1737555;80;21081;-64
2021/10/12 01:24:57;;;;;;;25.05;19.52;;;;;;;16.41;39.32;99774.70;1732142;80;21558;-65
2021/10/12 01:27:24;;;;;;;20.68;17.95;;;;;;;16.39;39.27;99774.90;1744486;80;20995;-66
2021/10/12 01:29:53;;;;;;;25.08;19.42;;;;;;;16.39;39.27;99768.19;1731659;81;21077;-66
2021/10/12 01:32:19;;;;;;;22.17;17.92;;;;;;;16.39;39.34;99770.06;1756391;80;21070;-66
2021/10/12 01:34:46;;;;;;;22.75;17.95;;;;;;;16.39;39.36;99766.03;1750733;81;21546;-65
2021/10/12 01:37:13;;;;;;;22.58;18.55;;;;;;;16.38;39.41;99768.39;1745551;80;21037;-66
2021/10/12 01:39:39;;;;;;;20.65;18.17;;;;;;;16.37;39.33;99765.42;1747077;80;21599;-66
2021/10/12 01:42:05;;;;;;;22.90;17.73;;;;;;;16.35;39.33;99760.25;1742079;80;21002;-66
2021/10/12 01:44:32;;;;;;;20.82;17.45;;;;;;;16.35;39.32;99758.91;1754823;80;21862;-65
2021/10/12 01:46:58;;;;;;;25.27;18.75;;;;;;;16.36;39.32;99757.05;1758030;80;21573;-65
2021/10/12 01:49:26;;;;;;;21.73;17.27;;;;;;;16.34;39.29;99753.27;1745592;80;20994;-66
2021/10/12 01:51:52;;;;;;;22.05;17.17;;;;;;;16.35;39.29;99756.76;1747268;80;21009;-66
2021/10/12 01:54:21;;;;;;;24.02;19.20;;;;;;;16.34;39.26;99753.27;1754320;81;21045;-67
2021/10/12 01:56:51;;;;;;;24.25;18.55;;;;;;;16.33;39.25;99751.59;1748032;80;21863;-66
2021/10/12 01:59:18;;;;;;;21.45;17.40;;;;;;;16.33;39.26;99748.91;1743563;80;21045;-66
2021/10/12 02:01:45;;;;;;;23.27;18.77;;;;;;;16.33;39.27;99750.78;1736716;81;21773;-66
2021/10/12 02:04:12;;;;;;;20.57;18.20;;;;;;;16.32;39.30;99744.56;1743493;80;21469;-66
2021/10/12 02:06:39;;;;;;;18.85;16.30;;;;;;;16.31;39.31;99747.77;1742070;80;21085;-66
2021/10/12 02:09:06;;;;;;;20.00;16.85;;;;;;;16.30;39.28;99742.12;1748685;81;21104;-66
2021/10/12 02:11:34;;;;;;;20.40;17.35;;;;;;;16.31;39.28;99744.27;1750819;80;21601;-65
2021/10/12 02:14:00;;;;;;;22.55;17.42;;;;;;;16.29;39.27;99740.45;1738347;81;21109;-65
2021/10/12 02:16:27;;;;;;;23.22;17.42;;;;;;;16.29;39.25;99741.80;1748234;80;21029;-65
2021/10/12 02:18:53;;;;;;;21.87;17.42;;;;;;;16.28;39.28;99733.45;1767077;80;21661;-65
2021/10/12 02:21:22;;;;;;;21.00;17.90;;;;;;;16.29;39.33;99741.80;1754546;81;21140;-65
2021/10/12 02:23:48;;;;;;;20.97;17.70;;;;;;;16.27;39.28;99730.45;1754850;80;21533;-66
2021/10/12 02:26:15;;;;;;;20.52;17.85;;;;;;;16.27;39.34;99729.64;1741376;80;21017;-65
2021/10/12 02:28:41;;;;;;;23.73;18.23;;;;;;;16.25;39.31;99725.81;1754356;81;21065;-65
2021/10/12 02:31:08;;;;;;;20.60;16.82;;;;;;;16.27;39.31;99721.59;1745084;80;21374;-65
2021/10/12 02:33:34;;;;;;;21.40;18.00;;;;;;;16.25;39.29;99723.14;1741444;80;21806;-65
2021/10/12 02:36:00;;;;;;;21.25;18.27;;;;;;;16.24;39.32;99720.13;1699465;82;21069;-65
2021/10/12 02:38:27;;;;;;;21.85;17.77;;;;;;;16.24;39.31;99717.45;1740769;82;21046;-65
2021/10/12 02:40:53;;;;;;;24.23;17.90;;;;;;;16.24;39.34;99720.66;1745856;80;21555;-65
2021/10/12 02:43:20;;;;;;;21.68;18.70;;;;;;;16.24;39.43;99713.95;1740205;82;21050;-65
2021/10/12 02:45:46;;;;;;;20.57;17.05;;;;;;;16.23;39.38;99713.66;1740862;82;21096;-65
2021/10/12 02:48:13;;;;;;;21.02;18.60;;;;;;;16.22;39.44;99701.27;1742357;80;21029;-66
2021/10/12 02:50:40;;;;;;;20.70;18.05;;;;;;;16.22;39.44;99702.09;1746857;80;21555;-65
2021/10/12 02:53:06;;;;;;;21.60;17.77;;;;;;;16.22;39.43;99697.25;1766626;80;21080;-65
2021/10/12 02:55:32;;;;;;;24.65;18.07;;;;;;;16.21;39.51;99696.44;1741691;80;21133;-64
2021/10/12 02:57:58;;;;;;;22.67;19.30;;;;;;;16.21;39.51;99695.09;1741185;80;21761;-65
2021/10/12 03:00:25;;;;;;;21.40;18.95;;;;;;;16.20;39.53;99693.44;1759861;80;21023;-66
2021/10/12 03:02:52;;;;;;;20.08;17.07;;;;;;;16.20;39.54;99689.41;1740218;82;21016;-66
2021/10/12 03:05:18;;;;;;;21.25;18.98;;;;;;;16.20;39.58;99684.58;1731006;80;21550;-65
2021/10/12 03:07:45;;;;;;;22.05;17.55;;;;;;;16.19;39.60;99682.42;1720991;82;21090;-65
2021/10/12 03:10:11;;;;;;;22.48;18.00;;;;;;;16.19;39.66;99677.58;1736489;80;21096;-66
2021/10/12 03:12:38;;;;;;;20.65;17.73;;;;;;;16.19;39.68;99685.62;1726167;80;21480;-65
2021/10/12 03:15:05;;;;;;;22.40;18.07;;;;;;;16.18;39.70;99683.44;1740901;82;21046;-65
2021/10/12 03:17:33;;;;;;;21.00;18.25;;;;;;;16.18;39.74;99684.78;1737983;82;21015;-65
2021/10/12 03:20:00;;;;;;;20.32;18.20;;;;;;;16.17;39.76;99679.62;1740293;82;21042;-65
2021/10/12 03:22:27;;;;;;;22.90;18.12;;;;;;;16.16;39.85;99676.13;1740240;80;21094;-65
2021/10/12 03:24:54;;;;;;;20.45;17.62;;;;;;;16.16;39.85;99677.98;1744204;80;21066;-65
2021/10/12 03:27:20;;;;;;;20.77;17.37;;;;;;;16.15;39.84;99679.00;1740277;82;21093;-65
2021/10/12 03:29:47;;;;;;;19.95;17.45;;;;;;;16.15;39.89;99676.31;1742197;81;21578;-65
2021/10/12 03:32:13;;;;;;;21.75;18.10;;;;;;;16.14;39.94;99667.98;1743868;80;21623;-64
2021/10/12 03:34:40;;;;;;;24.80;19.77;;;;;;;16.12;39.94;99665.50;1755984;81;21022;-64
2021/10/12 03:37:07;;;;;;;20.37;17.25;;;;;;;16.11;39.98;99665.22;1750154;80;21057;-65
2021/10/12 03:39:33;;;;;;;20.65;17.85;;;;;;;16.11;40.00;99665.22;1751012;80;21567;-66
2021/10/12 03:41:59;;;;;;;20.17;17.95;;;;;;;16.10;39.99;99664.89;1749590;80;21454;-66
2021/10/12 03:44:26;;;;;;;21.30;17.80;;;;;;;16.10;40.03;99667.05;1748506;80;21045;-66
2021/10/12 03:46:53;;;;;;;24.80;19.23;;;;;;;16.09;40.09;99658.72;1750075;81;21206;-66
2021/10/12 03:49:19;;;;;;;21.37;18.55;;;;;;;16.09;40.09;99657.37;1748760;80;21567;-67
2021/10/12 03:51:45;;;;;;;22.40;18.60;;;;;;;16.10;40.09;99656.84;1753009;80;21010;-66
2021/10/12 03:54:15;;;;;;;20.55;17.82;;;;;;;16.09;40.08;99652.54;1748045;80;21033;-68
2021/10/12 03:56:42;;;;;;;24.70;18.25;;;;;;;16.09;40.13;99654.70;1743437;80;21544;-68
2021/10/12 03:59:08;;;;;;;26.85;18.73;;;;;;;16.08;40.13;99651.69;1752390;81;21119;-68
2021/10/12 04:01:34;;;;;;;20.23;18.02;;;;;;;16.07;40.16;99652.73;1756261;80;21060;-68
2021/10/12 04:04:01;;;;;;;21.17;17.98;;;;;;;16.07;40.18;99654.57;1756261;80;21050;-68
2021/10/12 04:06:27;;;;;;;24.85;18.90;;;;;;;16.06;40.21;99647.58;1749499;80;21010;-69
2021/10/12 04:08:54;;;;;;;23.00;19.20;;;;;;;16.07;40.23;99653.23;1749693;80;21022;-69
2021/10/12 04:11:21;;;;;;;21.05;18.37;;;;;;;16.05;40.22;99649.44;1754235;80;21148;-70
2021/10/12 04:13:48;;;;;;;23.80;20.20;;;;;;;16.05;40.25;99649.94;1748382;80;21006;-67
2021/10/12 04:16:15;;;;;;;24.80;19.23;;;;;;;16.04;40.27;99645.09;1756875;80;20994;-67
2021/10/12 04:18:42;;;;;;;23.95;19.55;;;;;;;16.04;40.31;99645.09;1745868;80;21117;-67
2021/10/12 04:21:08;;;;;;;27.00;19.65;;;;;;;16.02;40.34;99643.14;1750839;81;21104;-66
2021/10/12 04:23:36;;;;;;;25.92;19.12;;;;;;;16.02;40.36;99645.00;1749708;80;21141;-67
2021/10/12 04:26:08;;;;;;;22.73;18.15;;;;;;;16.02;40.39;99640.98;1749513;81;21050;-67
2021/10/12 04:28:31;;;;;;;20.32;18.10;;;;;;;16.02;40.41;99642.33;1746003;80;21037;-68
2021/10/12 04:30:57;;;;;;;26.20;19.73;;;;;;;16.01;40.42;99640.66;1754989;81;21084;-68
2021/10/12 04:33:23;;;;;;;21.97;19.57;;;;;;;16.02;40.44;99639.64;1745212;80;21022;-67
2021/10/12 04:35:50;;;;;;;21.23;18.95;;;;;;;16.01;40.46;99632.63;1751033;80;21064;-67
2021/10/12 04:38:16;;;;;;;24.12;20.12;;;;;;;15.99;40.44;99633.34;1755992;80;21085;-67
2021/10/12 04:40:43;;;;;;;25.95;20.25;;;;;;;16.01;40.48;99635.30;1752970;80;21662;-67
2021/10/12 04:43:09;;;;;;;23.07;19.70;;;;;;;16.00;40.48;99632.33;1746873;81;21054;-67
2021/10/12 04:45:38;;;;;;;24.18;19.73;;;;;;;16.00;40.50;99625.63;1736298;80;21557;-67
2021/10/12 04:48:04;;;;;;;22.22;19.60;;;;;;;15.99;40.49;99622.63;1752713;80;21093;-67
2021/10/12 04:50:31;;;;;;;23.10;19.55;;;;;;;15.99;40.49;99621.29;1749313;80;21529;-67
2021/10/12 04:53:00;;;;;;;24.05;19.52;;;;;;;15.98;40.51;99621.00;1758055;80;21074;-67
2021/10/12 04:55:29;;;;;;;23.85;19.55;;;;;;;15.98;40.52;99621.81;1763108;80;21088;-68
2021/10/12 04:57:55;;;;;;;22.67;19.52;;;;;;;15.99;40.52;99618.61;1769243;80;21437;-67
2021/10/12 05:00:22;;;;;;;22.67;19.85;;;;;;;15.98;40.51;99621.81;1725578;81;21295;-68
2021/10/12 05:02:48;;;;;;;23.55;20.90;;;;;;;15.98;40.50;99617.80;1744088;80;21104;-70
2021/10/12 05:05:14;;;;;;;24.55;19.98;;;;;;;15.97;40.51;99618.00;1750589;80;21609;-69
2021/10/12 05:07:42;;;;;;;23.22;19.20;;;;;;;15.96;40.51;99619.86;1737499;80;21529;-69
2021/10/12 05:10:09;;;;;;;25.17;20.65;;;;;;;15.97;40.52;99622.02;1763362;80;21091;-65
2021/10/12 05:12:37;;;;;;;24.27;21.37;;;;;;;15.96;40.56;99622.54;1755429;80;21067;-66
2021/10/12 05:15:27;;;;;;;23.75;20.20;;;;;;;15.96;40.59;99615.03;1776768;80;20991;-67
2021/10/12 05:17:53;;;;;;;23.45;20.30;;;;;;;15.96;40.59;99613.69;1753888;80;21023;-67
2021/10/12 05:20:20;;;;;;;24.10;19.73;;;;;;;15.94;40.59;99615.22;1755245;80;21041;-71
2021/10/12 05:22:47;;;;;;;23.73;20.10;;;;;;;15.94;40.60;99612.55;1771642;79;21512;-69
2021/10/12 05:25:14;;;;;;;25.20;19.95;;;;;;;15.93;40.60;99606.86;1753343;81;21091;-67
2021/10/12 05:27:41;;;;;;;22.73;20.23;;;;;;;15.94;40.60;99609.86;1764458;80;21065;-67
2021/10/12 05:30:10;;;;;;;25.88;20.20;;;;;;;15.94;40.59;99607.19;1744408;80;21544;-71
2021/10/12 05:32:38;;;;;;;24.80;21.12;;;;;;;15.93;40.61;99606.86;1748667;81;21111;-72
2021/10/12 05:35:05;;;;;;;23.00;19.95;;;;;;;15.95;40.64;99606.66;1742833;81;21085;-70
2021/10/12 05:37:32;;;;;;;25.32;20.12;;;;;;;15.95;40.66;99610.69;1733659;81;21152;-70
2021/10/12 05:39:59;;;;;;;23.12;19.57;;;;;;;15.96;40.60;99607.80;1741873;81;21038;-72
2021/10/12 05:42:25;;;;;;;26.00;20.77;;;;;;;15.95;40.62;99610.16;1756703;80;21152;-71
2021/10/12 05:46:42;;;;;;;27.17;20.48;;;;;;;16.00;40.67;99606.36;1785701;79;28174;-70
2021/10/12 05:49:08;;;;;;;22.82;20.43;;;;;;;15.96;40.66;99608.33;1751089;81;21054;-71
2021/10/12 05:51:35;;;;;;;25.43;20.75;;;;;;;15.96;40.67;99606.98;1744577;81;21243;-72
2021/10/12 05:54:02;;;;;;;24.87;21.97;;;;;;;15.98;40.67;99604.92;1736453;81;20989;-70
2021/10/12 05:56:46;;;;;;;22.77;20.02;;;;;;;15.98;40.64;99610.28;1757183;81;20970;-70
2021/10/12 05:59:09;;;;;;;25.45;20.23;;;;;;;15.98;40.64;99613.78;1755514;81;21026;-71
2021/10/12 06:01:36;;;;;;;26.57;20.48;;;;;;;15.98;40.64;99610.28;1756715;81;21052;-71
2021/10/12 06:04:03;;;;;;;25.60;20.65;;;;;;;15.98;40.64;99613.78;1756973;81;21892;-71
2021/10/12 06:06:30;;;;;;;24.23;21.35;;;;;;;15.99;40.64;99606.03;1756897;81;20934;-70
2021/10/12 06:08:56;;;;;;;25.15;19.82;;;;;;;16.00;40.63;99605.02;1757062;81;21424;-72
2021/10/12 06:11:23;;;;;;;25.55;20.95;;;;;;;16.02;40.63;99604.81;1756878;81;21038;-70
2021/10/12 06:13:51;;;;;;;23.38;20.88;;;;;;;16.03;40.59;99603.28;1757143;81;21100;-71
2021/10/12 06:16:18;;;;;;;21.87;19.50;;;;;;;16.04;40.58;99599.55;1756889;81;21145;-72
2021/10/12 06:18:45;;;;;;;24.95;20.23;;;;;;;16.06;40.54;99598.83;1757020;81;21061;-69
2021/10/12 06:21:11;;;;;;;24.35;20.23;;;;;;;16.08;40.51;99594.60;1757300;81;21093;-70
2021/10/12 06:23:37;;;;;;;21.25;19.05;;;;;;;16.10;40.46;99596.56;1728476;81;21069;-71
2021/10/12 06:26:04;;;;;;;25.80;20.68;;;;;;;16.13;40.43;99597.50;1757095;81;21100;-72
2021/10/12 06:28:31;;;;;;;22.07;18.80;;;;;;;16.16;40.41;99596.25;1736368;81;21136;-72
2021/10/12 06:30:58;;;;;;;25.77;19.75;;;;;;;16.17;40.39;99586.66;1737821;81;21029;-73
2021/10/12 06:33:24;;;;;;;23.30;19.70;;;;;;;16.21;40.36;99591.09;1756760;81;21656;-71
2021/10/12 06:35:51;;;;;;;23.42;19.62;;;;;;;16.22;40.33;99594.88;1748970;81;21071;-71
2021/10/12 06:38:18;;;;;;;23.02;19.80;;;;;;;16.25;40.31;99594.48;1716586;81;21577;-71
2021/10/12 06:40:44;;;;;;;23.50;19.35;;;;;;;16.28;40.29;99597.25;1749649;81;21139;-71
2021/10/12 06:43:11;;;;;;;22.50;20.10;;;;;;;16.30;40.26;99597.86;1756838;81;21613;-71
2021/10/12 06:45:38;;;;;;;24.95;20.43;;;;;;;16.34;40.26;99602.29;1735619;81;21077;-71
2021/10/12 06:48:04;;;;;;;25.52;19.50;;;;;;;16.35;40.23;99600.75;1757229;81;21042;-71
2021/10/12 06:50:31;;;;;;;22.93;20.43;;;;;;;16.37;40.18;99596.52;1743833;81;21075;-70
2021/10/12 06:52:58;;;;;;;23.20;19.60;;;;;;;16.40;40.17;99597.43;1728380;81;21128;-70
2021/10/12 06:55:26;;;;;;;25.10;19.95;;;;;;;16.42;40.19;99591.37;1754610;81;21061;-70
2021/10/12 06:57:53;;;;;;;21.55;19.12;;;;;;;16.44;40.15;99598.68;1755613;80;21038;-69
2021/10/12 07:00:20;;;;;;;23.38;20.17;;;;;;;16.46;40.16;99595.27;1741117;81;21150;-73
2021/10/12 07:02:47;;;;;;;24.00;20.08;;;;;;;16.48;40.16;99598.56;1743269;81;21060;-73
2021/10/12 07:05:15;;;;;;;23.07;19.37;;;;;;;16.49;40.15;99593.49;1744365;81;23193;-72
2021/10/12 07:07:41;;;;;;;24.10;19.50;;;;;;;16.52;40.14;99594.43;1753559;81;21065;-73
2021/10/12 07:10:11;;;;;;;22.40;19.42;;;;;;;16.54;40.14;99593.70;1742892;81;21065;-70
2021/10/12 07:12:38;;;;;;;22.37;19.85;;;;;;;16.56;40.17;99594.84;1756617;81;21513;-69
2021/10/12 07:15:06;;;;;;;24.95;19.07;;;;;;;16.58;40.17;99593.58;1739902;81;21045;-71
2021/10/12 07:17:34;;;;;;;24.50;20.25;;;;;;;16.60;40.15;99586.14;1745887;81;21156;-71
2021/10/12 07:20:00;;;;;;;22.40;18.32;;;;;;;16.62;40.16;99584.59;1748035;81;21069;-69
2021/10/12 07:22:27;;;;;;;23.67;19.80;;;;;;;16.64;40.17;99583.87;1755443;81;21092;-70
2021/10/12 07:24:54;;;;;;;22.62;20.15;;;;;;;16.66;40.19;99589.84;1741110;81;21568;-70
2021/10/12 07:27:21;;;;;;;24.98;19.80;;;;;;;16.68;40.20;99583.75;1736844;81;21098;-69
2021/10/12 07:29:50;;;;;;;23.27;19.30;;;;;;;16.70;40.21;99584.36;1726296;81;21133;-69
2021/10/12 07:32:16;;;;;;;23.73;19.07;;;;;;;16.73;40.24;99581.76;1735771;80;21061;-68
2021/10/12 07:34:43;;;;;;;22.67;19.20;;;;;;;16.75;40.29;99581.05;1740170;80;21102;-71
2021/10/12 07:37:09;;;;;;;21.77;18.98;;;;;;;16.78;40.27;99577.41;1750612;81;21041;-70
2021/10/12 07:39:35;;;;;;;22.05;19.70;;;;;;;16.81;40.29;99570.29;1737192;81;21151;-70
2021/10/12 07:42:05;;;;;;;23.67;19.48;;;;;;;16.83;40.31;99571.45;1749415;81;21148;-70
2021/10/12 07:44:32;;;;;;;26.25;20.10;;;;;;;16.86;40.33;99571.01;1726330;81;21039;-71
2021/10/12 07:46:58;;;;;;;24.43;19.17;;;;;;;16.89;40.30;99575.96;1732630;82;21027;-71
2021/10/12 07:49:25;;;;;;;23.25;18.80;;;;;;;16.93;40.30;99572.34;1750146;80;21052;-72
2021/10/12 07:51:51;;;;;;;25.35;20.72;;;;;;;16.95;40.31;99574.28;1735048;81;21045;-71
2021/10/12 07:54:25;;;;;;;24.00;18.12;;;;;;;16.97;40.31;99569.00;1734129;82;21092;-70
2021/10/12 07:56:46;;;;;;;20.32;17.73;;;;;;;17.01;40.29;99572.08;1722853;81;21125;-71
2021/10/12 07:59:12;;;;;;;24.12;18.82;;;;;;;17.04;40.27;99569.80;1735108;81;21053;-69
2021/10/12 08:01:40;;;;;;;20.77;18.07;;;;;;;17.08;40.20;99563.48;1732000;81;21077;-69
2021/10/12 08:04:07;;;;;;;24.15;18.52;;;;;;;17.11;40.24;99559.02;1749671;81;21101;-71
2021/10/12 08:06:34;;;;;;;23.77;18.25;;;;;;;17.16;40.22;99557.05;1739614;81;21124;-72
2021/10/12 08:09:00;;;;;;;20.95;17.50;;;;;;;17.20;40.21;99552.36;1739564;81;21041;-74
2021/10/12 08:11:28;;;;;;;23.00;18.27;;;;;;;17.24;40.26;99550.07;1743744;81;21022;-74
2021/10/12 08:14:01;;;;;;;20.77;17.95;;;;;;;17.28;40.25;99549.41;1744946;80;21636;-71
2021/10/12 08:16:30;;;;;;;19.48;17.42;;;;;;;17.33;40.20;99551.46;1718725;82;21069;-73
2021/10/12 08:18:54;;;;;;;22.22;16.75;;;;;;;17.38;40.18;99545.43;1718767;82;21113;-73
2021/10/12 08:21:21;;;;;;;17.95;15.98;;;;;;;17.42;40.09;99534.55;1719983;82;21105;-69
2021/10/12 08:23:47;;;;;;;18.42;16.50;;;;;;;17.46;40.05;99533.91;1741550;80;21155;-68
2021/10/12 08:26:15;;;;;;;20.05;16.02;;;;;;;17.51;40.04;99525.19;1739340;82;21061;-71
2021/10/12 08:28:41;;;;;;;24.00;17.12;;;;;;;17.56;40.00;99516.47;1739250;82;21078;-70
2021/10/12 08:31:08;;;;;;;20.97;16.40;;;;;;;17.60;39.93;99515.83;1725010;82;21145;-69
2021/10/12 08:33:35;;;;;;;17.42;15.30;;;;;;;17.65;39.86;99515.16;1727571;81;21090;-64
2021/10/12 08:36:02;;;;;;;21.95;17.10;;;;;;;17.69;39.90;99508.30;1739995;81;21549;-67
2021/10/12 08:38:31;;;;;;;22.20;15.88;;;;;;;17.63;40.23;99514.55;1745395;82;21515;-67
2021/10/12 08:40:57;;;;;;;20.90;16.75;;;;;;;17.61;40.38;99513.95;1736765;82;21098;-67
2021/10/12 08:43:24;;;;;;;20.27;15.20;;;;;;;17.64;40.38;99510.84;1744006;81;21105;-68
2021/10/12 08:45:50;;;;;;;19.37;15.08;;;;;;;17.70;40.34;99513.98;1725486;81;21002;-69
2021/10/12 08:48:17;;;;;;;21.87;14.47;;;;;;;17.76;40.26;99507.73;1719899;82;21034;-69
2021/10/12 08:50:44;;;;;;;18.23;14.35;;;;;;;17.85;40.19;99504.28;1729137;82;21514;-67
2021/10/12 08:53:10;;;;;;;21.02;14.13;;;;;;;17.92;40.09;99504.20;1730914;81;21002;-67
2021/10/12 08:55:37;;;;;;;21.15;13.80;;;;;;;17.97;39.99;99501.15;1743752;81;21203;-66
2021/10/12 08:58:04;;;;;;;18.52;13.78;;;;;;;18.04;39.90;99501.07;1722699;81;21101;-66
2021/10/12 09:00:31;;;;;;;16.60;13.25;;;;;;;18.12;39.79;99496.77;1716514;81;21615;-66
2021/10/12 09:06:01;;;;;;;20.77;12.58;;;;;;;18.26;39.58;99491.53;1717227;81;21014;-66
2021/10/12 09:08:41;;;;;;;19.52;12.30;;;;;;;18.34;39.44;99497.13;1721323;82;21105;-65
2021/10/12 09:11:15;;;;;;;14.93;13.22;;;;;;;18.40;39.27;99489.50;1727394;82;21520;-66
2021/10/12 09:13:46;;;;;;;14.18;11.45;;;;;;;18.47;39.19;99494.81;1722584;80;21045;-65
2021/10/12 09:16:15;;;;;;;14.95;12.13;;;;;;;18.53;39.10;99485.02;1735692;80;21039;-64
2021/10/12 09:18:55;;;;;;;18.70;11.97;;;;;;;18.59;39.05;99478.20;1713943;81;21209;-67
2021/10/12 09:21:34;;;;;;;15.70;12.37;;;;;;;18.65;38.95;99485.36;1662894;84;21161;-65
2021/10/12 09:24:14;;;;;;;14.43;12.13;;;;;;;18.71;38.86;99474.21;1731945;80;21569;-66
2021/10/12 09:26:49;;;;;;;15.45;11.45;;;;;;;18.78;38.77;99475.48;1722910;82;21069;-67
2021/10/12 09:29:31;;;;;;;16.82;11.83;;;;;;;18.84;38.70;99467.87;1734742;82;21576;-66
2021/10/12 09:31:56;;;;;;;13.70;11.12;;;;;;;18.91;38.59;99459.18;1723045;82;21072;-67
2021/10/12 09:34:23;;;;;;;15.35;12.45;;;;;;;18.99;38.55;99465.57;1730542;81;23280;-66
2021/10/12 09:36:51;;;;;;;15.40;11.00;;;;;;;19.04;38.46;99456.29;1737146;81;21532;-66
2021/10/12 09:39:43;;;;;;;16.60;12.13;;;;;;;19.12;38.37;99447.56;1729124;82;21052;-67
2021/10/12 09:42:15;;;;;;;13.85;11.40;;;;;;;19.18;38.32;99447.98;1720885;82;21509;-68
2021/10/12 09:44:59;;;;;;;15.95;11.57;;;;;;;19.24;38.23;99444.39;1728384;81;21033;-66
2021/10/12 09:47:26;;;;;;;14.43;10.90;;;;;;;19.30;38.16;99435.91;1730832;80;21339;-67
2021/10/12 09:50:14;;;;;;;14.30;10.78;;;;;;;19.35;38.08;99435.47;1736731;80;21105;-68
2021/10/12 09:52:46;;;;;;;17.48;12.60;;;;;;;19.40;38.05;99428.87;1745506;80;21018;-67
2021/10/12 09:55:09;;;;;;;13.98;10.98;;;;;;;19.48;37.98;99428.23;1741719;80;21091;-67
2021/10/12 09:57:36;;;;;;;16.40;11.28;;;;;;;19.54;37.92;99420.56;1730410;81;21671;-67
2021/10/12 10:00:05;;;;;;;14.45;11.40;;;;;;;19.60;37.89;99425.81;1731577;80;21174;-65
2021/10/12 10:02:34;;;;;;;15.28;12.35;;;;;;;19.67;37.82;99416.28;1742219;80;21007;-66
2021/10/12 10:05:00;;;;;;;14.00;11.43;;;;;;;19.74;37.79;99412.98;1745060;80;21051;-66
2021/10/12 10:07:31;;;;;;;13.55;11.93;;;;;;;19.79;37.71;99404.17;1747513;80;21160;-65
2021/10/12 10:10:02;;;;;;;17.45;12.65;;;;;;;19.88;37.65;99406.80;1736731;80;21545;-65
2021/10/12 10:12:29;;;;;;;15.08;11.43;;;;;;;19.94;37.60;99408.53;1727018;81;21090;-63
2021/10/12 10:14:55;;;;;;;15.43;12.50;;;;;;;19.98;37.52;99398.91;1731760;82;21522;-67
2021/10/12 10:17:21;;;;;;;14.33;11.60;;;;;;;20.02;37.43;99394.68;1728148;80;21054;-66
2021/10/12 10:19:49;;;;;;;13.80;12.00;;;;;;;20.08;37.41;99396.14;1743263;81;21031;-65
2021/10/12 10:22:48;;;;;;;13.88;11.83;;;;;;;20.14;37.30;99400.03;1730503;81;21054;-68
2021/10/12 10:25:40;;;;;;;14.03;11.95;;;;;;;20.18;37.22;99392.29;1737601;81;22018;-67
2021/10/12 10:28:21;;;;;;;13.43;11.73;;;;;;;20.20;37.17;99385.62;1728225;82;21621;-66
2021/10/12 10:30:57;;;;;;;13.90;12.25;;;;;;;20.22;37.14;99392.94;1726713;80;21116;-64
2021/10/12 10:33:29;;;;;;;15.68;12.25;;;;;;;20.26;37.10;99385.70;1734042;81;21101;-67
2021/10/12 10:36:00;;;;;;;14.15;12.10;;;;;;;20.28;37.06;99384.92;1711108;82;21081;-66
2021/10/12 10:38:33;;;;;;;18.48;12.00;;;;;;;20.30;37.04;99381.45;1727296;81;21211;-65
2021/10/12 10:41:10;;;;;;;13.93;12.37;;;;;;;20.32;37.03;99377.98;1710409;82;21022;-66
2021/10/12 10:44:01;;;;;;;16.17;11.97;;;;;;;20.34;36.99;99382.10;1720215;82;21077;-65
2021/10/12 10:46:37;;;;;;;18.02;12.43;;;;;;;20.37;36.97;99370.00;1713289;82;21561;-67
2021/10/12 10:49:19;;;;;;;18.85;12.33;;;;;;;20.38;36.96;99370.30;1725723;80;21089;-66
2021/10/12 10:51:56;;;;;;;16.73;12.95;;;;;;;20.39;36.92;99366.53;1735516;80;21980;-66
2021/10/12 10:54:44;;;;;;;17.12;13.48;;;;;;;20.39;36.93;99361.95;1741760;80;21533;-69
2021/10/12 10:57:15;;;;;;;18.42;12.65;;;;;;;20.40;36.89;99361.44;1740274;80;21100;-68
2021/10/12 10:59:43;;;;;;;16.87;12.80;;;;;;;20.38;36.88;99354.93;1742313;80;22043;-66
2021/10/12 11:02:36;;;;;;;14.43;12.93;;;;;;;20.39;36.88;99351.69;1743140;80;21027;-66
2021/10/12 11:05:03;;;;;;;18.77;13.78;;;;;;;20.38;36.89;99351.42;1741104;82;21157;-68
2021/10/12 11:07:30;;;;;;;18.65;13.58;;;;;;;20.36;36.90;99354.35;1740956;80;21038;-71
2021/10/12 11:09:57;;;;;;;15.25;12.53;;;;;;;20.35;36.92;99346.50;1739706;81;21977;-68
2021/10/12 11:12:26;;;;;;;16.57;13.48;;;;;;;20.35;36.93;99350.55;1741056;80;21035;-66
2021/10/12 11:14:54;;;;;;;15.93;13.28;;;;;;;20.33;36.93;99341.88;1736817;80;21022;-67
2021/10/12 11:17:20;;;;;;;16.15;13.58;;;;;;;20.34;36.96;99343.50;1741979;80;21843;-69
2021/10/12 11:20:14;;;;;;;18.98;13.38;;;;;;;20.33;36.98;99343.23;1734770;80;21044;-67
2021/10/12 11:22:42;;;;;;;16.07;12.90;;;;;;;20.33;36.97;99340.53;1732150;81;21056;-70
2021/10/12 11:25:12;;;;;;;15.88;13.13;;;;;;;20.32;36.97;99334.33;1741711;80;21581;-68
2021/10/12 11:27:43;;;;;;;15.05;13.45;;;;;;;20.32;36.97;99329.44;1731169;82;21101;-67